CPA876 WADD-KDFW
Flight info
| Callsign | CPA876 |
|---|---|
| Flight time | N/A |
| Altitude | 33000 |
| Route | PEDET A450 MKS W32 LUANG/N0502F350 W32 MWB DCT ELNIT DCT AIBIE DCT 13N140E 21N150E/N0490F370 28N160E 33N170E/N0478F390 37N180E 40N170W 42N160W 43N150W/N0473F410 43N140W 42N130W DCT KO60G DCT MLF J58 FTI J76 TCC J6 PNH J17 TURKI J72 GANJA DCT WLLTR VKTRY2 |
| Aircraft | A359/H-SDE2E3GHIJ3J4J5LM1ORWXY/LB1D1 |
Departure
| Time | 2026-04-27 14:06 |
|---|---|
| Airport | Denpasar I Gusti Ngurah Rai International Airport (WADD) |
Arrival
| Time | N/A |
|---|---|
| Airport | Dallas Fort Worth International Airport (KDFW) |
| Time | Latitude | Longitude | Altitude | Speed | Heading |
|---|---|---|---|---|---|
| 2026-04-27 13:45 | -8.74561 | 115.16669 | 23 ft | 0 kts | 357° |
| 2026-04-27 13:56 | -8.74566 | 115.16669 | 26 ft | 2 kts | 357° |
| 2026-04-27 13:57 | -8.74585 | 115.16670 | 25 ft | 3 kts | 357° |
| 2026-04-27 13:57 | -8.74605 | 115.16671 | 24 ft | 3 kts | 357° |
| 2026-04-27 13:57 | -8.74625 | 115.16672 | 25 ft | 2 kts | 357° |
| 2026-04-27 13:57 | -8.74643 | 115.16673 | 26 ft | 3 kts | 345° |
| 2026-04-27 13:58 | -8.74659 | 115.16679 | 26 ft | 3 kts | 321° |
| 2026-04-27 13:58 | -8.74670 | 115.16689 | 26 ft | 3 kts | 290° |
| 2026-04-27 13:58 | -8.74674 | 115.16705 | 25 ft | 3 kts | 267° |
| 2026-04-27 13:58 | -8.74672 | 115.16726 | 26 ft | 3 kts | 264° |
| 2026-04-27 13:59 | -8.74671 | 115.16736 | 25 ft | 0 kts | 267° |
| 2026-04-27 14:02 | -8.74671 | 115.16735 | 25 ft | 2 kts | 267° |
| 2026-04-27 14:03 | -8.74673 | 115.16687 | 26 ft | 11 kts | 267° |
| 2026-04-27 14:03 | -8.74677 | 115.16584 | 26 ft | 17 kts | 269° |
| 2026-04-27 14:03 | -8.74681 | 115.16446 | 26 ft | 21 kts | 268° |
| 2026-04-27 14:03 | -8.74690 | 115.16283 | 27 ft | 25 kts | 266° |
| 2026-04-27 14:04 | -8.74701 | 115.16095 | 27 ft | 27 kts | 267° |
| 2026-04-27 14:04 | -8.74708 | 115.15890 | 27 ft | 31 kts | 268° |
| 2026-04-27 14:04 | -8.74717 | 115.15683 | 26 ft | 19 kts | 268° |
| 2026-04-27 14:04 | -8.74722 | 115.15582 | 26 ft | 17 kts | 267° |
| 2026-04-27 14:05 | -8.74729 | 115.15446 | 30 ft | 18 kts | 262° |
| 2026-04-27 14:05 | -8.74838 | 115.15392 | 30 ft | 21 kts | 174° |
| 2026-04-27 14:05 | -8.74892 | 115.15456 | 27 ft | 13 kts | 88° |
| 2026-04-27 14:05 | -8.74884 | 115.15611 | 26 ft | 47 kts | 88° |
| 2026-04-27 14:06 | -8.74871 | 115.15946 | 27 ft | 95 kts | 87° |
| 2026-04-27 14:06 | -8.74836 | 115.16844 | 29 ft | 159 kts | 87° |
| 2026-04-27 14:06 | -8.74787 | 115.18138 | 230 ft | 196 kts | 88° |
| 2026-04-27 14:06 | -8.74713 | 115.19441 | 1294 ft | 180 kts | 89° |
| 2026-04-27 14:07 | -8.74660 | 115.20768 | 1838 ft | 198 kts | 89° |
| 2026-04-27 14:07 | -8.74609 | 115.22283 | 2072 ft | 212 kts | 89° |
| 2026-04-27 14:07 | -8.74558 | 115.23736 | 2247 ft | 227 kts | 88° |
| 2026-04-27 14:07 | -8.74493 | 115.25373 | 2438 ft | 243 kts | 88° |
| 2026-04-27 14:08 | -8.74421 | 115.27114 | 2825 ft | 251 kts | 88° |
| 2026-04-27 14:08 | -8.74347 | 115.28905 | 3287 ft | 256 kts | 88° |
| 2026-04-27 14:08 | -8.74272 | 115.30716 | 3776 ft | 259 kts | 88° |
| 2026-04-27 14:08 | -8.74197 | 115.32546 | 4259 ft | 262 kts | 88° |
| 2026-04-27 14:09 | -8.74125 | 115.34378 | 4739 ft | 264 kts | 88° |
| 2026-04-27 14:09 | -8.74049 | 115.36266 | 5223 ft | 267 kts | 88° |
| 2026-04-27 14:09 | -8.73974 | 115.38141 | 5735 ft | 268 kts | 88° |
| 2026-04-27 14:09 | -8.73902 | 115.40036 | 6240 ft | 270 kts | 88° |
| 2026-04-27 14:10 | -8.73823 | 115.41917 | 6725 ft | 272 kts | 88° |
| 2026-04-27 14:10 | -8.73742 | 115.43831 | 7214 ft | 273 kts | 88° |
| 2026-04-27 14:10 | -8.73661 | 115.45757 | 7721 ft | 274 kts | 88° |
| 2026-04-27 14:10 | -8.73581 | 115.47685 | 8217 ft | 277 kts | 88° |
| 2026-04-27 14:11 | -8.73456 | 115.49635 | 8745 ft | 278 kts | 82° |
| 2026-04-27 14:11 | -8.72951 | 115.51528 | 9240 ft | 281 kts | 70° |
| 2026-04-27 14:11 | -8.72059 | 115.53298 | 9761 ft | 284 kts | 56° |
| 2026-04-27 14:11 | -8.70772 | 115.54799 | 10176 ft | 290 kts | 47° |
| 2026-04-27 14:12 | -8.69296 | 115.56259 | 10400 ft | 303 kts | 45° |